Time;durP1;ratioP1;P1;durP2;ratioP2;P2;SDS_P1;SDS_P2;PMS_P1;PMS_P2;Temp;Humidity;BMP_temperature;BMP_pressure;BME280_temperature;BME280_humidity;BME280_pressure;Samples;Min_cycle;Max_cycle;Signal;HPM_P1;HPM_P2
2024/01/08 00:02:03;;;;;;;3.53;3.17;;;;;;;-3.09;100.00;99191.34;15287170;19;20026;-59
2024/01/08 00:07:30;;;;;;;3.70;3.30;;;;;;;-3.07;100.00;99183.34;15288193;19;20790;-59
2024/01/08 00:12:55;;;;;;;4.25;3.08;;;;;;;-3.07;100.00;99180.72;15287261;19;20043;-58
2024/01/08 00:18:21;;;;;;;3.83;3.45;;;;;;;-3.06;100.00;99195.63;15294914;19;20059;-59
2024/01/08 00:23:49;;;;;;;4.10;3.38;;;;;;;-3.07;100.00;99189.50;15289240;19;20082;-59
2024/01/08 00:29:15;;;;;;;4.47;3.60;;;;;;;-3.06;100.00;99195.63;15288037;19;20014;-59
2024/01/08 00:34:40;;;;;;;4.13;3.58;;;;;;;-3.07;100.00;99200.06;15290019;19;20014;-58
2024/01/08 00:40:16;;;;;;;2.55;2.25;;;;;;;-3.18;100.00;99202.22;15296610;19;20697;-59
2024/01/08 00:45:47;;;;;;;2.95;2.10;;;;;;;-3.36;100.00;99198.47;15288192;19;20017;-60
2024/01/08 00:51:12;;;;;;;2.45;2.15;;;;;;;-3.52;100.00;99203.38;15285179;19;20492;-59
2024/01/08 00:56:39;;;;;;;3.17;2.60;;;;;;;-3.65;100.00;99189.78;15282909;19;20023;-59
2024/01/08 01:02:04;;;;;;;3.42;2.78;;;;;;;-3.71;100.00;99198.75;15281828;19;20041;-59
2024/01/08 01:07:29;;;;;;;3.75;2.75;;;;;;;-3.78;100.00;99195.47;15281547;19;20015;-58
2024/01/08 01:12:57;;;;;;;3.42;2.95;;;;;;;-3.81;100.00;99207.88;15286154;19;20018;-59
2024/01/08 01:18:22;;;;;;;4.38;3.05;;;;;;;-3.84;100.00;99213.25;15278204;19;20082;-59
2024/01/08 01:23:47;;;;;;;4.32;2.97;;;;;;;-3.87;100.00;99219.47;15283478;19;20050;-59
2024/01/08 01:29:14;;;;;;;2.67;1.70;;;;;;;-3.97;100.00;99210.16;15285504;19;20021;-58
2024/01/08 01:34:39;;;;;;;2.13;1.90;;;;;;;-4.15;100.00;99220.38;15289968;19;20023;-59
2024/01/08 01:40:10;;;;;;;2.63;1.85;;;;;;;-4.27;100.00;99210.22;15283814;19;20356;-58
2024/01/08 01:45:37;;;;;;;3.15;2.28;;;;;;;-4.41;100.00;99182.59;15286138;19;20061;-59
2024/01/08 01:51:03;;;;;;;2.50;2.10;;;;;;;-4.47;100.00;99187.22;15278014;19;20018;-58
2024/01/08 01:56:29;;;;;;;3.40;2.50;;;;;;;-4.55;100.00;99182.19;15277413;19;20800;-58
2024/01/08 02:01:57;;;;;;;2.30;2.10;;;;;;;-4.70;100.00;99180.84;15281293;19;20109;-58
2024/01/08 02:07:22;;;;;;;2.78;2.33;;;;;;;-4.91;100.00;99188.50;15277485;19;20475;-59
2024/01/08 02:12:46;;;;;;;2.90;2.35;;;;;;;-5.23;100.00;99186.81;15282136;19;20014;-59
2024/01/08 02:18:13;;;;;;;3.53;2.67;;;;;;;-5.54;100.00;99193.75;15277381;19;20406;-58
2024/01/08 02:23:41;;;;;;;2.75;2.10;;;;;;;-5.74;100.00;99194.28;15281043;19;20018;-56
2024/01/08 02:29:06;;;;;;;2.85;2.25;;;;;;;-5.97;100.00;99200.97;15292548;19;20025;-57
2024/01/08 02:34:30;;;;;;;4.07;2.65;;;;;;;-6.16;100.00;99189.22;15296323;19;20015;-59
2024/01/08 02:40:04;;;;;;;3.15;2.80;;;;;;;-6.30;100.00;99205.31;14779385;19;10000147;-59
2024/01/08 02:45:31;;;;;;;2.80;2.53;;;;;;;-6.43;100.00;99207.38;15300482;19;20349;-57
2024/01/08 02:50:55;;;;;;;3.95;2.90;;;;;;;-6.52;100.00;99217.13;15293937;19;20018;-58
2024/01/08 02:56:25;;;;;;;4.20;3.00;;;;;;;-6.55;100.00;99216.34;15295200;19;20035;-58
2024/01/08 03:01:43;;;;;;;3.93;3.30;;;;;;;-6.59;100.00;99220.81;15293986;19;20022;-58
2024/01/08 03:07:07;;;;;;;7.85;3.40;;;;;;;-6.61;100.00;99225.22;15290551;19;20014;-58
2024/01/08 03:12:34;;;;;;;4.75;3.47;;;;;;;-6.62;100.00;99235.75;15293537;19;20018;-57
2024/01/08 03:17:59;;;;;;;5.00;3.28;;;;;;;-6.72;100.00;99237.69;15289290;19;20485;-58
2024/01/08 03:23:24;;;;;;;4.03;3.03;;;;;;;-6.87;100.00;99247.59;15292137;19;20491;-58
2024/01/08 03:28:51;;;;;;;4.00;3.33;;;;;;;-7.05;100.00;99246.19;15290303;19;20026;-59
2024/01/08 03:34:16;;;;;;;5.38;3.83;;;;;;;-7.24;100.00;99242.22;15288044;19;20364;-58
2024/01/08 03:39:41;;;;;;;3.70;3.13;;;;;;;-7.40;100.00;99246.91;15289052;19;20019;-56
2024/01/08 03:45:09;;;;;;;6.47;3.72;;;;;;;-7.55;100.00;99248.91;15295653;19;20019;-59
2024/01/08 03:50:35;;;;;;;7.43;3.97;;;;;;;-7.66;100.00;99258.69;15289291;19;20030;-58
2024/01/08 03:56:00;;;;;;;5.10;3.60;;;;;;;-7.76;100.00;99264.09;15294902;19;20014;-57
2024/01/08 04:01:27;;;;;;;5.25;3.97;;;;;;;-7.84;100.00;99265.97;15287008;19;20022;-58
2024/01/08 04:06:52;;;;;;;5.82;3.67;;;;;;;-7.92;100.00;99273.94;15295028;19;20015;-57
2024/01/08 04:12:16;;;;;;;5.80;4.20;;;;;;;-7.96;100.00;99276.63;15290031;19;20029;-57
2024/01/08 04:17:43;;;;;;;6.22;4.35;;;;;;;-7.96;100.00;99276.63;15294478;19;20045;-57
2024/01/08 04:23:08;;;;;;;5.10;3.97;;;;;;;-7.93;100.00;99292.25;15287795;19;20022;-66
2024/01/08 04:28:33;;;;;;;6.18;4.20;;;;;;;-7.86;100.00;99296.53;15286837;19;20371;-65
2024/01/08 04:34:00;;;;;;;5.60;4.20;;;;;;;-7.78;100.00;99293.78;15285261;19;20043;-65
2024/01/08 04:39:31;;;;;;;6.07;4.50;;;;;;;-7.72;100.00;99296.28;15283235;19;20039;-65
2024/01/08 04:44:55;;;;;;;;;;;;;;;-7.69;100.00;99300.59;15288443;19;20031;-65
2024/01/08 04:50:23;;;;;;;7.45;4.97;;;;;;;-7.66;100.00;99305.78;15292624;19;19918;-65
2024/01/08 04:55:48;;;;;;;6.05;4.20;;;;;;;-7.65;100.00;99316.25;15288850;19;20118;-65
2024/01/08 05:01:13;;;;;;;6.32;4.70;;;;;;;-7.63;100.00;99321.44;15286625;19;20708;-65
2024/01/08 05:06:40;;;;;;;6.90;4.97;;;;;;;-7.65;100.00;99317.97;15288505;19;20095;-66
2024/01/08 05:12:06;;;;;;;8.40;5.10;;;;;;;-7.66;100.00;99334.56;15275577;19;20033;-65
2024/01/08 05:17:31;;;;;;;7.57;5.30;;;;;;;-7.73;100.00;99331.19;15280556;19;20029;-65
2024/01/08 05:22:59;;;;;;;6.95;5.15;;;;;;;-7.79;100.00;99341.75;15286906;19;20015;-67
2024/01/08 05:28:25;;;;;;;8.77;5.70;;;;;;;-7.89;100.00;99338.41;15282665;19;20041;-65
2024/01/08 05:33:49;;;;;;;7.15;5.35;;;;;;;-7.92;100.00;99341.94;15280842;19;20105;-64
2024/01/08 05:39:23;;;;;;;7.47;5.35;;;;;;;-7.96;100.00;99342.03;15281397;19;20041;-66
2024/01/08 05:44:48;;;;;;;8.70;5.78;;;;;;;-7.97;100.00;99355.97;15278773;19;20031;-64
2024/01/08 05:50:15;;;;;;;8.88;6.18;;;;;;;-7.97;100.00;99350.75;15289936;19;20117;-67
2024/01/08 05:55:43;;;;;;;8.40;6.00;;;;;;;-8.01;100.00;99362.13;15288711;19;20561;-66
2024/01/08 06:01:07;;;;;;;8.07;5.65;;;;;;;-8.10;100.00;99371.84;15287827;19;20041;-65
2024/01/08 06:06:32;;;;;;;8.10;5.95;;;;;;;-8.17;100.00;99369.31;15288432;19;20082;-65
2024/01/08 06:11:59;;;;;;;10.25;6.70;;;;;;;-8.16;100.00;99373.66;15285707;19;20015;-65
2024/01/08 06:17:25;;;;;;;9.40;6.18;;;;;;;-8.22;100.00;99383.31;15287823;19;20015;-65
2024/01/08 06:22:49;;;;;;;9.57;5.93;;;;;;;-8.26;100.00;99383.38;15297756;19;20058;-66
2024/01/08 06:28:16;;;;;;;9.90;6.03;;;;;;;-8.26;100.00;99393.84;15285542;19;20041;-67
2024/01/08 06:33:42;;;;;;;7.57;6.10;;;;;;;-8.26;100.00;99393.84;15285054;19;20090;-64
2024/01/08 06:39:13;;;;;;;10.70;5.50;;;;;;;-8.32;100.00;99399.16;15272271;19;20018;-66
2024/01/08 06:44:40;;;;;;;8.85;5.75;;;;;;;-8.43;100.00;99409.72;15277488;19;20037;-65
2024/01/08 06:50:05;;;;;;;8.50;5.97;;;;;;;-8.46;100.00;99410.63;15282257;19;20078;-65
2024/01/08 06:55:31;;;;;;;9.07;5.95;;;;;;;-8.48;100.00;99420.25;15279062;19;20028;-65
2024/01/08 07:00:58;;;;;;;9.38;6.07;;;;;;;-8.53;100.00;99437.75;15270022;19;20042;-66
2024/01/08 07:06:23;;;;;;;9.57;6.80;;;;;;;-8.68;100.00;99429.19;15276677;19;20528;-65
2024/01/08 07:11:47;;;;;;;10.52;6.65;;;;;;;-8.72;100.00;99437.94;15284873;19;20047;-66
2024/01/08 07:17:14;;;;;;;9.45;6.88;;;;;;;-8.72;100.00;99437.94;15296400;19;20038;-65
2024/01/08 07:22:39;;;;;;;10.23;7.07;;;;;;;-8.71;100.00;99454.50;15291760;19;20090;-66
2024/01/08 07:28:04;;;;;;;10.00;6.55;;;;;;;-8.73;100.00;99451.88;15296897;19;20046;-66
2024/01/08 07:33:31;;;;;;;9.63;6.80;;;;;;;-8.75;100.00;99461.47;15292295;19;20022;-65
2024/01/08 07:39:02;;;;;;;8.60;6.25;;;;;;;-8.75;100.00;99458.84;15284293;19;20363;-66
2024/01/08 07:44:27;;;;;;;9.20;6.90;;;;;;;-8.74;100.00;99467.56;15280971;19;20028;-65
2024/01/08 07:49:54;;;;;;;8.07;6.18;;;;;;;-8.69;100.00;99474.47;15293229;19;20025;-65
2024/01/08 07:55:20;;;;;;;10.95;6.75;;;;;;;-8.60;100.00;99477.88;15289193;19;20018;-65
2024/01/08 08:00:44;;;;;;;11.77;6.28;;;;;;;-8.57;100.00;99488.31;15289171;19;20018;-64
2024/01/08 08:06:12;;;;;;;7.93;6.03;;;;;;;-8.55;100.00;99502.22;15293654;19;20015;-62
2024/01/08 08:11:39;;;;;;;8.05;5.65;;;;;;;-8.50;100.00;99500.41;15261984;19;20010;-64
2024/01/08 08:17:04;;;;;;;8.38;5.63;;;;;;;-8.47;100.00;99495.13;15289648;19;20019;-63
2024/01/08 08:22:31;;;;;;;8.77;5.47;;;;;;;-8.45;100.00;99509.06;15285196;19;20018;-63
2024/01/08 08:28:01;;;;;;;9.50;5.70;;;;;;;-8.42;100.00;99523.84;15032776;19;5000736;-65
2024/01/08 08:33:25;;;;;;;8.45;5.47;;;;;;;-8.36;100.00;99531.63;15289827;19;20018;-62
2024/01/08 08:38:59;;;;;;;7.65;5.88;;;;;;;-8.37;100.00;99546.44;15280934;19;20027;-64
2024/01/08 08:44:24;;;;;;;8.55;5.57;;;;;;;-8.42;100.00;99543.00;15280629;19;20022;-63
2024/01/08 08:49:48;;;;;;;8.98;5.65;;;;;;;-8.40;100.00;99559.53;15280824;19;20029;-63
2024/01/08 08:55:16;;;;;;;9.02;6.35;;;;;;;-8.39;100.00;99566.47;15289932;19;20020;-63
2024/01/08 09:00:40;;;;;;;7.90;5.90;;;;;;;-8.33;100.00;99562.09;15283320;19;20019;-64
2024/01/08 09:06:06;;;;;;;8.25;6.13;;;;;;;-8.34;100.00;99579.50;15284926;19;20033;-65
2024/01/08 09:11:35;;;;;;;7.63;5.70;;;;;;;-8.29;100.00;99582.09;15280931;19;20467;-63
2024/01/08 09:17:02;;;;;;;7.68;5.70;;;;;;;-8.29;100.00;99579.50;15289020;19;20032;-63
2024/01/08 09:22:26;;;;;;;9.75;6.28;;;;;;;-8.33;100.00;99585.63;15278875;19;20027;-64
2024/01/08 09:27:53;;;;;;;10.18;6.38;;;;;;;-8.28;100.00;99587.31;15286884;19;20011;-63
2024/01/08 09:33:18;;;;;;;8.55;6.00;;;;;;;-8.13;100.00;99583.66;15284033;19;20039;-63
2024/01/08 09:38:43;;;;;;;9.55;6.30;;;;;;;-8.09;100.00;99601.06;15285851;19;20018;-64
2024/01/08 09:44:12;;;;;;;9.63;6.55;;;;;;;-8.00;100.00;99604.47;15278712;19;20018;-63
2024/01/08 09:49:38;;;;;;;8.57;5.90;;;;;;;-7.99;100.00;99609.66;15275041;19;20027;-63
2024/01/08 09:55:03;;;;;;;9.13;6.35;;;;;;;-7.91;100.00;99609.59;15021707;19;5001008;-63
2024/01/08 10:00:30;;;;;;;9.07;6.38;;;;;;;-7.95;100.00;99606.16;15281517;19;20007;-65
2024/01/08 10:05:56;;;;;;;8.07;5.90;;;;;;;-7.90;100.00;99616.56;15283027;19;20032;-65
2024/01/08 10:11:21;;;;;;;7.93;5.35;;;;;;;-7.87;100.00;99620.88;15282931;19;20024;-64
2024/01/08 10:16:49;;;;;;;8.85;6.35;;;;;;;-7.86;100.00;99620.00;15288807;19;20015;-65
2024/01/08 10:22:21;;;;;;;8.95;6.38;;;;;;;-7.81;100.00;99620.84;15283750;19;20338;-64
2024/01/08 10:27:47;;;;;;;8.82;6.30;;;;;;;-7.80;100.00;99630.44;15284008;19;20014;-64
2024/01/08 10:33:16;;;;;;;8.68;5.82;;;;;;;-7.80;100.00;99623.44;15277535;19;20025;-65
2024/01/08 10:38:42;;;;;;;9.83;6.33;;;;;;;-7.81;100.00;99626.94;15278858;19;20082;-64
2024/01/08 10:44:08;;;;;;;8.95;5.75;;;;;;;-7.82;100.00;99627.81;15280006;19;20482;-64
2024/01/08 10:49:40;;;;;;;8.90;5.82;;;;;;;-7.79;100.00;99633.00;15291306;19;20034;-64
2024/01/08 10:55:05;;;;;;;10.18;6.72;;;;;;;-7.91;100.00;99641.00;15301575;19;20035;-64
2024/01/08 11:00:31;;;;;;;8.68;6.30;;;;;;;-7.97;100.00;99641.06;15297870;19;20032;-64
2024/01/08 11:06:02;;;;;;;8.52;5.88;;;;;;;-7.91;100.00;99641.00;15290585;19;20734;-65
2024/01/08 11:11:27;;;;;;;9.60;6.13;;;;;;;-7.93;100.00;99637.50;15300915;19;20022;-65
2024/01/08 11:16:53;;;;;;;10.32;6.80;;;;;;;-7.88;100.00;99640.97;15302325;19;20090;-64
2024/01/08 11:22:21;;;;;;;9.65;6.05;;;;;;;-7.81;100.00;99641.78;15298352;19;20042;-65
2024/01/08 11:27:52;;;;;;;8.73;6.63;;;;;;;-7.75;100.00;99653.03;15310381;19;20247;-65
2024/01/08 11:33:33;;;;;;;8.43;6.05;;;;;;;-7.74;100.00;99649.53;15289556;19;20039;-65
2024/01/08 11:39:17;;;;;;;13.23;6.77;;;;;;;-7.70;100.00;99660.00;15291347;19;20014;-66
2024/01/08 11:44:42;;;;;;;8.68;6.40;;;;;;;-7.74;100.00;99654.78;15290632;19;20094;-64
2024/01/08 11:50:06;;;;;;;9.40;6.57;;;;;;;-7.69;100.00;99656.47;15293606;19;20022;-64
2024/01/08 11:55:35;;;;;;;9.13;6.60;;;;;;;-7.73;100.00;99660.88;15295981;19;20371;-64
2024/01/08 12:00:59;;;;;;;9.45;6.28;;;;;;;-7.78;100.00;99663.53;15288637;19;20090;-63
2024/01/08 12:06:24;;;;;;;10.60;6.45;;;;;;;-7.75;100.00;99662.63;14525580;19;10000872;-63
2024/01/08 12:11:51;;;;;;;9.43;6.93;;;;;;;-7.72;100.00;99667.84;15290254;19;20022;-62
2024/01/08 12:17:18;;;;;;;8.65;6.13;;;;;;;-7.76;100.00;99666.16;15288543;19;20021;-63
2024/01/08 12:22:36;;;;;;;8.50;6.57;;;;;;;-7.82;100.00;99669.66;15286234;19;20378;-63
2024/01/08 12:28:08;;;;;;;9.15;6.30;;;;;;;-7.77;100.00;99662.66;15285637;19;20028;-63
2024/01/08 12:33:34;;;;;;;8.05;6.47;;;;;;;-7.79;100.00;99671.41;15281034;19;20025;-62
2024/01/08 12:38:59;;;;;;;8.88;6.38;;;;;;;-7.80;100.00;99669.66;15286199;19;20018;-62
2024/01/08 12:44:27;;;;;;;8.10;5.93;;;;;;;-7.77;100.00;99675.72;15283471;19;20753;-62
2024/01/08 12:49:52;;;;;;;10.10;6.75;;;;;;;-7.82;100.00;99676.66;15288313;19;20031;-62
2024/01/08 12:55:20;;;;;;;9.07;6.32;;;;;;;-7.98;100.00;99673.31;15285663;19;20796;-63
2024/01/08 13:00:47;;;;;;;9.13;6.03;;;;;;;-8.15;100.00;99684.78;15286253;19;20484;-63
2024/01/08 13:06:13;;;;;;;9.15;6.35;;;;;;;-8.25;100.00;99693.59;15279644;19;20022;-64
2024/01/08 13:11:38;;;;;;;9.68;6.72;;;;;;;-8.30;100.00;99698.00;15282652;19;20018;-63
2024/01/08 13:17:06;;;;;;;9.43;6.85;;;;;;;-8.15;100.00;99690.03;15287295;19;20374;-65
2024/01/08 13:22:30;;;;;;;10.05;7.35;;;;;;;-8.09;100.00;99700.44;15289429;19;20482;-65
2024/01/08 13:27:58;;;;;;;10.63;7.10;;;;;;;-8.06;100.00;99689.97;15289479;19;20054;-65
2024/01/08 13:33:26;;;;;;;9.93;7.18;;;;;;;-7.90;100.00;99689.81;15286309;19;20018;-65
2024/01/08 13:38:51;;;;;;;10.05;7.47;;;;;;;-7.65;100.00;99697.44;15281271;19;20054;-64
2024/01/08 13:44:16;;;;;;;10.60;6.43;;;;;;;-7.52;100.00;99695.53;15279444;19;20254;-64
2024/01/08 13:49:44;;;;;;;9.48;6.47;;;;;;;-7.32;100.00;99711.91;15285953;19;20083;-61
2024/01/08 13:55:09;;;;;;;8.85;6.90;;;;;;;-7.12;100.00;99709.06;15286157;19;20020;-64
2024/01/08 14:00:34;;;;;;;10.20;7.00;;;;;;;-6.97;100.00;99709.75;15279823;19;20014;-63
2024/01/08 14:06:03;;;;;;;9.25;6.63;;;;;;;-6.92;100.00;99713.19;15281225;19;20436;-63
2024/01/08 14:11:29;;;;;;;9.73;6.60;;;;;;;-6.91;100.00;99717.53;15277769;19;20018;-64
2024/01/08 14:16:53;;;;;;;11.77;7.20;;;;;;;-6.85;100.00;99725.31;15286325;19;20022;-65
2024/01/08 14:22:22;;;;;;;10.13;7.43;;;;;;;-6.78;100.00;99725.25;15276703;19;20024;-64
2024/01/08 14:27:46;;;;;;;10.23;6.75;;;;;;;-6.83;100.00;99738.41;15294179;19;20389;-64
2024/01/08 14:33:11;;;;;;;9.85;6.90;;;;;;;-6.84;100.00;99740.16;15291816;19;20018;-64
2024/01/08 14:38:38;;;;;;;11.98;6.80;;;;;;;-6.84;100.00;99753.25;15297369;19;20015;-64
2024/01/08 14:44:04;;;;;;;10.70;7.03;;;;;;;-6.90;100.00;99747.22;15288402;19;20232;-63
2024/01/08 14:49:28;;;;;;;10.50;7.43;;;;;;;-7.08;100.00;99746.56;15297860;19;20360;-62
2024/01/08 14:54:55;;;;;;;10.60;7.38;;;;;;;-7.24;100.00;99753.72;15293385;19;20018;-63
2024/01/08 15:00:25;;;;;;;11.90;6.85;;;;;;;-7.38;100.00;99747.78;15296417;19;20360;-63
2024/01/08 15:05:51;;;;;;;9.23;6.93;;;;;;;-7.54;100.00;99761.00;15290006;19;20022;-64
2024/01/08 15:11:18;;;;;;;10.45;6.72;;;;;;;-7.72;100.00;99774.28;15294852;19;20018;-64
2024/01/08 15:16:43;;;;;;;13.98;9.18;;;;;;;-7.94;100.00;99775.31;15296180;19;20018;-64
2024/01/08 15:22:08;;;;;;;10.80;7.32;;;;;;;-8.10;100.00;99779.78;15285656;19;20010;-63
2024/01/08 15:27:36;;;;;;;10.38;6.97;;;;;;;-8.23;100.00;99785.97;15290549;19;20018;-63
2024/01/08 15:33:01;;;;;;;9.98;7.22;;;;;;;-8.40;100.00;99779.09;15294677;19;20030;-63
2024/01/08 15:38:26;;;;;;;10.13;7.10;;;;;;;-8.51;100.00;99799.22;15295634;19;20094;-63
2024/01/08 15:43:53;;;;;;;10.75;6.70;;;;;;;-8.60;100.00;99792.31;15287485;19;20029;-62
2024/01/08 15:49:18;;;;;;;10.38;6.80;;;;;;;-8.67;100.00;99806.25;15294081;19;20026;-63
2024/01/08 15:54:43;;;;;;;9.32;6.63;;;;;;;-8.72;100.00;99823.72;15288841;19;20086;-63
2024/01/08 16:00:12;;;;;;;10.27;7.45;;;;;;;-8.80;100.00;99828.97;15286396;19;20032;-62
2024/01/08 16:05:36;;;;;;;11.20;7.30;;;;;;;-8.84;100.00;99828.13;15286632;19;20014;-63
2024/01/08 16:11:01;;;;;;;12.18;7.28;;;;;;;-8.88;100.00;99844.66;15287554;19;20023;-63
2024/01/08 16:16:28;;;;;;;10.77;6.93;;;;;;;-8.92;100.00;99852.50;15296923;19;20022;-63
2024/01/08 16:21:55;;;;;;;10.95;6.72;;;;;;;-8.94;100.00;99864.69;15287030;19;20010;-62
2024/01/08 16:27:19;;;;;;;9.20;6.75;;;;;;;-8.99;100.00;99862.09;15292733;19;20090;-62
2024/01/08 16:32:47;;;;;;;10.35;6.82;;;;;;;-9.00;100.00;99870.78;15289123;19;20020;-63
2024/01/08 16:38:13;;;;;;;10.10;7.05;;;;;;;-9.02;100.00;99877.75;15284260;19;20086;-64
2024/01/08 16:43:38;;;;;;;13.18;8.82;;;;;;;-9.05;100.00;99880.38;15301876;19;20042;-63
2024/01/08 16:49:05;;;;;;;12.25;8.27;;;;;;;-9.10;100.00;99890.81;15288855;19;20365;-64
2024/01/08 16:54:31;;;;;;;23.58;15.40;;;;;;;-9.15;100.00;99892.59;15281704;19;20026;-63
2024/01/08 16:59:56;;;;;;;25.30;14.00;;;;;;;-9.20;100.00;99889.09;15282936;19;20039;-63
2024/01/08 17:05:24;;;;;;;14.82;9.43;;;;;;;-9.23;100.00;99896.94;15288042;19;20014;-64
2024/01/08 17:10:49;;;;;;;77.05;38.88;;;;;;;-9.27;100.00;99903.03;15287589;19;20029;-62
2024/01/08 17:16:14;;;;;;;69.95;35.25;;;;;;;-9.36;100.00;99893.47;15288510;19;20018;-63
2024/01/08 17:21:42;;;;;;;12.80;8.93;;;;;;;-9.44;100.00;99909.13;15287334;19;20015;-64
2024/01/08 17:27:08;;;;;;;12.57;7.78;;;;;;;-9.50;100.00;99916.94;15278789;19;20014;-64
2024/01/08 17:32:32;;;;;;;10.88;7.60;;;;;;;-9.54;100.00;99925.63;15284192;19;20755;-64
2024/01/08 17:38:00;;;;;;;11.55;7.40;;;;;;;-9.61;100.00;99928.25;15285684;19;20023;-65
2024/01/08 17:43:24;;;;;;;9.48;6.75;;;;;;;-9.68;100.00;99926.47;15283236;19;20033;-64
2024/01/08 17:48:49;;;;;;;10.25;6.88;;;;;;;-9.73;100.00;99932.56;15279755;19;20366;-64
2024/01/08 17:54:17;;;;;;;11.65;7.50;;;;;;;-9.80;100.00;99924.72;15276808;19;20023;-64
2024/01/08 17:59:42;;;;;;;10.40;7.40;;;;;;;-9.88;100.00;99928.19;15281613;19;20093;-65
2024/01/08 18:05:06;;;;;;;14.53;10.17;;;;;;;-9.91;100.00;99927.31;15280745;19;20085;-63
2024/01/08 18:10:33;;;;;;;11.07;7.97;;;;;;;-9.92;100.00;99929.91;15277262;19;20015;-63
2024/01/08 18:15:58;;;;;;;12.33;7.43;;;;;;;-9.95;100.00;99940.34;15283137;19;20021;-63
2024/01/08 18:21:26;;;;;;;13.02;7.97;;;;;;;-9.96;100.00;99939.47;15280192;19;20025;-62
2024/01/08 18:27:08;;;;;;;10.13;6.70;;;;;;;-9.97;100.00;99926.41;15283186;19;20017;-63
2024/01/08 18:32:41;;;;;;;30.80;22.83;;;;;;;-10.00;100.00;99940.31;15283129;19;20304;-62
2024/01/08 18:38:19;;;;;;;13.27;9.65;;;;;;;-9.98;100.00;99943.81;15282224;19;20026;-63
2024/01/08 18:43:51;;;;;;;20.97;14.70;;;;;;;-9.97;100.00;99942.94;15275268;19;20487;-62
2024/01/08 18:49:29;;;;;;;14.30;9.47;;;;;;;-9.96;100.00;99944.69;15279048;19;20267;-63
2024/01/08 18:54:55;;;;;;;12.10;7.18;;;;;;;-10.02;100.00;99960.28;15277471;19;20014;-63
2024/01/08 19:00:24;;;;;;;12.85;8.68;;;;;;;-10.04;100.00;99972.44;15272610;19;20074;-64
2024/01/08 19:05:49;;;;;;;11.30;8.10;;;;;;;-10.07;100.00;99967.25;15282837;19;20027;-64
2024/01/08 19:11:13;;;;;;;13.13;8.20;;;;;;;-10.08;100.00;99973.31;15290852;19;20018;-63
2024/01/08 19:16:42;;;;;;;10.98;8.38;;;;;;;-10.09;100.00;99980.25;15293216;19;20371;-62
2024/01/08 19:22:06;;;;;;;11.40;8.10;;;;;;;-10.09;100.00;99976.78;15292426;19;20715;-63
2024/01/08 19:27:32;;;;;;;10.73;7.30;;;;;;;-10.13;100.00;99975.03;15292147;19;20599;-63
2024/01/08 19:33:00;;;;;;;13.67;10.10;;;;;;;-10.13;100.00;99972.41;15285575;19;20014;-65
2024/01/08 19:38:26;;;;;;;10.60;7.30;;;;;;;-10.11;100.00;99981.97;15293237;19;20015;-61
2024/01/08 19:43:51;;;;;;;11.60;8.00;;;;;;;-10.09;100.00;99977.66;15291010;19;20011;-64
2024/01/08 19:49:19;;;;;;;9.87;6.53;;;;;;;-10.07;100.00;99977.69;15287354;19;20010;-63
2024/01/08 19:54:52;;;;;;;12.13;7.70;;;;;;;-10.15;100.00;99979.34;15294493;19;20022;-64
2024/01/08 20:00:18;;;;;;;13.10;9.35;;;;;;;-10.24;100.00;99986.28;15291963;19;20036;-63
2024/01/08 20:05:45;;;;;;;12.80;6.70;;;;;;;-10.31;100.00;99988.84;15287612;19;20367;-64
2024/01/08 20:11:10;;;;;;;10.90;7.47;;;;;;;-10.34;100.00;99984.50;15291887;19;20018;-63
2024/01/08 20:16:37;;;;;;;10.10;6.60;;;;;;;-10.32;100.00;100000.13;15289477;19;20422;-60
2024/01/08 20:22:06;;;;;;;8.43;6.57;;;;;;;-10.32;100.00;99997.53;15283364;19;20039;-60
2024/01/08 20:27:32;;;;;;;10.30;6.87;;;;;;;-10.32;100.00;99998.41;15293423;19;20093;-54
2024/01/08 20:32:57;;;;;;;10.40;7.07;;;;;;;-10.28;100.00;100001.88;15287307;19;20011;-65
2024/01/08 20:38:24;;;;;;;12.00;7.97;;;;;;;-10.17;100.00;100012.38;15283743;19;20035;-65
2024/01/08 20:43:49;;;;;;;11.87;8.53;;;;;;;-10.10;100.00;100014.16;15286641;19;20026;-66
2024/01/08 20:49:13;;;;;;;10.27;7.63;;;;;;;-10.08;100.00;100012.44;15285294;19;20479;-65
2024/01/08 20:54:44;;;;;;;9.35;7.28;;;;;;;-10.03;100.00;100007.22;15281275;19;20033;-64
2024/01/08 21:00:08;;;;;;;10.53;7.57;;;;;;;-10.01;100.00;100016.78;15283142;19;20361;-64
2024/01/08 21:05:33;;;;;;;10.00;7.13;;;;;;;-10.01;100.00;100008.13;15283871;19;20018;-65
2024/01/08 21:11:00;;;;;;;9.37;7.27;;;;;;;-10.00;100.00;100023.75;15276349;19;20018;-65
2024/01/08 21:16:25;;;;;;;10.33;7.20;;;;;;;-10.00;100.00;100025.50;15279995;19;20046;-65
2024/01/08 21:21:49;;;;;;;9.77;6.67;;;;;;;-10.03;100.00;100036.75;15287349;19;20082;-66
2024/01/08 21:27:17;;;;;;;10.10;7.10;;;;;;;-10.02;100.00;100038.50;15286764;19;20017;-66
2024/01/08 21:32:42;;;;;;;12.37;7.00;;;;;;;-10.05;100.00;100033.28;15285898;19;20573;-65
2024/01/08 21:38:07;;;;;;;11.63;7.77;;;;;;;-10.09;100.00;100039.34;15290846;19;20082;-65
2024/01/08 21:43:34;;;;;;;11.33;7.13;;;;;;;-10.15;100.00;100032.38;15281720;19;20054;-65
2024/01/08 21:49:01;;;;;;;12.83;7.60;;;;;;;-10.16;100.00;100035.84;15286609;19;20365;-65
2024/01/08 21:54:26;;;;;;;9.00;6.50;;;;;;;-10.14;100.00;100043.66;15295129;19;20051;-65
2024/01/08 21:59:54;;;;;;;11.00;6.53;;;;;;;-10.16;100.00;100034.94;15279271;19;20029;-66
2024/01/08 22:05:18;;;;;;;9.13;6.27;;;;;;;-10.17;100.00;100041.06;15280556;19;20031;-66
2024/01/08 22:10:43;;;;;;;10.17;6.20;;;;;;;-10.17;100.00;100038.44;15280053;19;20014;-64
2024/01/08 22:16:13;;;;;;;8.93;6.17;;;;;;;-10.16;100.00;100050.59;15279963;19;20074;-66
2024/01/08 22:21:38;;;;;;;9.80;6.93;;;;;;;-10.11;100.00;100054.13;15281668;19;20018;-63
2024/01/08 22:27:03;;;;;;;8.77;6.00;;;;;;;-10.10;100.00;100063.69;15283753;19;20019;-60
2024/01/08 22:32:31;;;;;;;9.47;6.03;;;;;;;-10.13;100.00;100072.38;15282864;19;20019;-68
2024/01/08 22:37:56;;;;;;;8.27;5.80;;;;;;;-10.14;100.00;100069.72;15283196;19;20048;-65
2024/01/08 22:43:21;;;;;;;9.67;6.47;;;;;;;-10.19;100.00;100063.63;15296127;19;20021;-62
2024/01/08 22:48:49;;;;;;;8.23;6.20;;;;;;;-10.22;100.00;100054.03;15293281;19;20010;-63
2024/01/08 22:54:15;;;;;;;11.27;5.93;;;;;;;-10.23;100.00;100053.19;15295854;19;20043;-64
2024/01/08 22:59:39;;;;;;;9.57;5.83;;;;;;;-10.29;100.00;100058.34;15298704;19;20347;-62
2024/01/08 23:05:07;;;;;;;8.10;5.70;;;;;;;-10.35;100.00;100055.72;15292787;19;20074;-62
2024/01/08 23:10:32;;;;;;;9.87;6.07;;;;;;;-10.38;100.00;100060.94;15286834;19;20804;-66
2024/01/08 23:15:57;;;;;;;6.70;5.43;;;;;;;-10.43;100.00;100057.44;15292395;19;20043;-67
2024/01/08 23:21:24;;;;;;;9.53;5.83;;;;;;;-10.53;100.00;100048.66;15290959;19;20035;-60
2024/01/08 23:26:49;;;;;;;8.50;5.80;;;;;;;-10.56;100.00;100054.75;15295230;19;20026;-66
2024/01/08 23:32:15;;;;;;;9.10;6.40;;;;;;;-10.48;100.00;100060.00;15293526;19;20025;-65
2024/01/08 23:37:43;;;;;;;10.93;6.03;;;;;;;-10.39;100.00;100053.97;15295511;19;20491;-64
2024/01/08 23:43:16;;;;;;;9.73;6.20;;;;;;;-10.24;100.00;100055.78;15290416;19;20411;-69
2024/01/08 23:48:41;;;;;;;9.80;6.13;;;;;;;-10.16;100.00;100051.47;15293239;19;20043;-60
2024/01/08 23:54:08;;;;;;;8.23;5.23;;;;;;;-10.18;100.00;100053.19;15287334;19;20085;-62
2024/01/08 23:59:33;;;;;;;9.10;6.03;;;;;;;-10.20;100.00;100056.66;15288776;19;20028;-64
